createdAt,value
2023-03-29T00:01:43.342Z,98967.31
2023-03-29T00:04:10.577Z,98968.19
2023-03-29T00:06:37.955Z,98965.63
2023-03-29T00:09:09.720Z,98969.06
2023-03-29T00:11:36.731Z,98957.09
2023-03-29T00:14:03.629Z,98960.50
2023-03-29T00:16:31.075Z,98948.56
2023-03-29T00:18:58.267Z,98950.25
2023-03-29T00:21:25.569Z,98959.59
2023-03-29T00:23:52.556Z,98957.03
2023-03-29T00:26:19.483Z,98937.38
2023-03-29T00:28:47.070Z,98940.84
2023-03-29T00:31:15.451Z,98939.16
2023-03-29T00:33:42.938Z,98944.28
2023-03-29T00:36:10.989Z,98932.31
2023-03-29T00:38:39.067Z,98934.88
2023-03-29T00:41:08.468Z,98940.84
2023-03-29T00:43:55.957Z,98935.75
2023-03-29T00:46:23.568Z,98943.44
2023-03-29T00:48:52.174Z,98945.22
2023-03-29T00:51:19.094Z,98943.53
2023-03-29T00:53:48.883Z,98937.59
2023-03-29T00:56:37.276Z,98940.22
2023-03-29T00:59:07.191Z,98941.94
2023-03-29T01:01:45.657Z,98939.41
2023-03-29T01:04:26.100Z,98941.97
2023-03-29T01:06:59.392Z,98937.72
2023-03-29T01:09:27.253Z,98930.94
2023-03-29T01:11:55.844Z,98941.25
2023-03-29T01:14:34.571Z,98929.31
2023-03-29T01:17:02.158Z,98919.94
2023-03-29T01:19:32.062Z,98926.78
2023-03-29T01:22:18.347Z,98923.44
2023-03-29T01:25:03.399Z,98898.63
2023-03-29T01:27:50.055Z,98899.53
2023-03-29T01:30:22.232Z,98907.25
2023-03-29T01:33:03.251Z,98896.97
2023-03-29T01:35:44.786Z,98891.00
2023-03-29T01:38:25.671Z,98892.72
2023-03-29T01:40:52.579Z,98880.75
2023-03-29T01:43:38.628Z,98887.59
2023-03-29T01:46:45.855Z,98882.47
2023-03-29T01:49:17.033Z,98884.19
2023-03-29T01:51:46.845Z,98884.19
2023-03-29T01:54:33.734Z,98886.75
2023-03-29T01:57:00.722Z,98878.22
2023-03-29T01:59:29.254Z,98875.69
2023-03-29T02:02:01.250Z,98877.44
2023-03-29T02:04:53.535Z,98874.00
2023-03-29T02:07:23.133Z,98880.00
2023-03-29T02:09:50.214Z,98875.81
2023-03-29T02:12:17.049Z,98874.13
2023-03-29T02:14:44.060Z,98877.63
2023-03-29T02:17:24.068Z,98868.22
2023-03-29T02:19:56.366Z,98868.22
2023-03-29T02:22:25.811Z,98865.66
2023-03-29T02:24:53.873Z,98863.94
2023-03-29T02:27:21.388Z,98858.78
2023-03-29T02:29:48.335Z,98862.25
2023-03-29T02:32:55.499Z,98852.84
2023-03-29T02:35:27.999Z,98858.88
2023-03-29T02:37:54.986Z,98852.03
2023-03-29T02:40:23.625Z,98864.00
2023-03-29T02:42:50.785Z,98858.88
2023-03-29T02:45:17.823Z,98858.88
2023-03-29T02:47:46.788Z,98848.63
2023-03-29T02:50:13.664Z,98846.09
2023-03-29T02:52:43.298Z,98858.06
2023-03-29T02:55:15.037Z,98856.38
2023-03-29T02:57:43.558Z,98846.09
2023-03-29T03:00:11.546Z,98854.63
2023-03-29T03:02:38.681Z,98840.13
2023-03-29T03:05:09.262Z,98849.50
2023-03-29T03:07:36.450Z,98840.09
2023-03-29T03:10:04.108Z,98841.81
2023-03-29T03:12:31.423Z,98853.81
2023-03-29T03:14:58.439Z,98848.69
2023-03-29T03:17:25.355Z,98847.00
2023-03-29T03:19:53.296Z,98842.75
2023-03-29T03:22:20.601Z,98839.34
2023-03-29T03:24:47.477Z,98841.09
2023-03-29T03:27:14.334Z,98840.22
2023-03-29T03:29:41.668Z,98843.66
2023-03-29T03:32:44.737Z,98840.22
2023-03-29T03:35:34.980Z,98841.94
2023-03-29T03:38:01.934Z,98838.53
2023-03-29T03:40:28.852Z,98835.97
2023-03-29T03:42:56.159Z,98832.56
2023-03-29T03:45:23.152Z,98839.44
2023-03-29T03:47:54.460Z,98830.88
2023-03-29T03:50:55.231Z,98824.91
2023-03-29T03:53:22.905Z,98829.19
2023-03-29T03:56:13.441Z,98821.50
2023-03-29T03:59:01.159Z,98813.81
2023-03-29T04:01:31.424Z,98809.56
2023-03-29T04:04:14.517Z,98816.41
2023-03-29T04:06:51.661Z,98800.19
2023-03-29T04:09:41.008Z,98802.75
2023-03-29T04:12:31.035Z,98807.91
2023-03-29T04:14:58.125Z,98806.22
2023-03-29T04:17:27.251Z,98819.94
2023-03-29T04:19:58.201Z,98818.25
2023-03-29T04:22:27.709Z,98804.59
2023-03-29T04:24:54.711Z,98825.19
2023-03-29T04:27:41.643Z,98808.06
2023-03-29T04:30:17.035Z,98812.34
2023-03-29T04:33:10.550Z,98807.22
2023-03-29T04:35:40.285Z,98809.84
2023-03-29T04:38:11.799Z,98813.28
2023-03-29T04:40:39.833Z,98813.31
2023-03-29T04:43:26.933Z,98803.03
2023-03-29T04:46:00.385Z,98803.03
2023-03-29T04:48:46.982Z,98803.91
2023-03-29T04:51:14.425Z,98805.63
2023-03-29T04:53:43.831Z,98796.22
2023-03-29T04:56:11.439Z,98815.03
2023-03-29T04:59:10.491Z,98799.66
2023-03-29T05:01:37.904Z,98802.22
2023-03-29T05:04:05.757Z,98800.50
2023-03-29T05:06:38.647Z,98794.53
2023-03-29T05:09:08.999Z,98802.22
2023-03-29T05:11:49.902Z,98795.38
2023-03-29T05:14:17.108Z,98803.97
2023-03-29T05:16:44.669Z,98811.69
2023-03-29T05:19:13.178Z,98801.41
2023-03-29T05:21:45.646Z,98798.00
2023-03-29T05:24:17.234Z,98796.28
2023-03-29T05:26:52.163Z,98800.59
2023-03-29T05:29:20.092Z,98794.59
2023-03-29T05:31:53.202Z,98792.91
2023-03-29T05:34:20.551Z,98797.22
2023-03-29T05:36:52.000Z,98805.78
2023-03-29T05:39:21.141Z,98786.94
2023-03-29T05:41:48.317Z,98793.81
2023-03-29T05:44:28.052Z,98792.09
2023-03-29T05:47:02.169Z,98798.09
2023-03-29T05:49:29.044Z,98799.84
2023-03-29T05:52:07.655Z,98802.41
2023-03-29T05:54:36.310Z,98794.72
2023-03-29T05:57:05.068Z,98796.44
2023-03-29T05:59:32.491Z,98783.59
2023-03-29T06:02:04.979Z,98798.16
2023-03-29T06:04:33.799Z,98810.16
2023-03-29T06:07:19.208Z,98806.72
2023-03-29T06:10:06.666Z,98799.91
2023-03-29T06:12:33.629Z,98778.47
2023-03-29T06:15:04.929Z,98783.59
2023-03-29T06:17:52.654Z,98784.47
2023-03-29T06:20:19.887Z,98790.50
2023-03-29T06:22:52.677Z,98789.63
2023-03-29T06:25:19.851Z,98788.81
2023-03-29T06:27:49.291Z,98782.78
2023-03-29T06:30:19.327Z,98781.06
2023-03-29T06:32:50.614Z,98775.94
2023-03-29T06:35:37.057Z,98764.78
2023-03-29T06:38:08.205Z,98762.22
2023-03-29T06:41:04.419Z,98754.44
2023-03-29T06:43:47.820Z,98757.00
2023-03-29T06:46:17.062Z,98763.03
2023-03-29T06:48:55.626Z,98769.91
2023-03-29T06:51:24.541Z,98748.41
2023-03-29T06:53:51.540Z,98760.44
2023-03-29T06:56:18.910Z,98759.56
2023-03-29T06:58:48.984Z,98750.13
2023-03-29T07:01:30.970Z,98756.13
2023-03-29T07:04:08.181Z,98763.84
2023-03-29T07:07:01.581Z,98758.66
2023-03-29T07:09:31.613Z,98765.53
2023-03-29T07:12:17.351Z,98757.78
2023-03-29T07:14:46.625Z,98756.91
2023-03-29T07:17:14.932Z,98756.00
2023-03-29T07:19:42.454Z,98745.69
2023-03-29T07:22:21.400Z,98747.38
2023-03-29T07:24:53.432Z,98744.78
2023-03-29T07:27:20.865Z,98751.66
2023-03-29T07:29:50.070Z,98748.22
2023-03-29T07:32:18.204Z,98758.53
2023-03-29T07:34:46.315Z,98749.91
2023-03-29T07:37:21.704Z,98752.44
2023-03-29T07:39:48.554Z,98756.72
2023-03-29T07:42:39.471Z,98756.69
2023-03-29T07:45:11.339Z,98749.78
2023-03-29T07:47:54.560Z,98738.59
2023-03-29T07:50:21.660Z,98755.75
2023-03-29T07:52:49.330Z,98748.88
2023-03-29T07:55:16.583Z,98754.88
2023-03-29T07:57:54.272Z,98753.13
2023-03-29T08:00:22.431Z,98750.53
2023-03-29T08:03:07.382Z,98745.41
2023-03-29T08:05:41.268Z,98742.84
2023-03-29T08:08:14.441Z,98743.72
2023-03-29T08:11:01.320Z,98746.34
2023-03-29T08:13:42.071Z,98736.91
2023-03-29T08:16:27.915Z,98742.09
2023-03-29T08:19:03.922Z,98755.84
2023-03-29T08:21:48.215Z,98742.13
2023-03-29T08:24:16.132Z,98736.13
2023-03-29T08:26:49.454Z,98730.97
2023-03-29T08:29:19.240Z,98722.38
2023-03-29T08:31:46.345Z,98732.66
2023-03-29T08:34:13.581Z,98716.31
2023-03-29T08:37:00.769Z,98724.88
2023-03-29T08:39:37.843Z,98714.53
2023-03-29T08:42:43.160Z,98717.06
2023-03-29T08:45:29.478Z,98719.63
2023-03-29T08:48:11.171Z,98722.09
2023-03-29T08:50:43.936Z,98719.47
2023-03-29T08:53:18.052Z,98714.28
2023-03-29T08:56:07.187Z,98716.84
2023-03-29T08:58:52.434Z,98717.66
2023-03-29T09:01:20.065Z,98724.53
2023-03-29T09:04:00.186Z,98718.50
2023-03-29T09:06:40.214Z,98716.78
2023-03-29T09:09:18.980Z,98738.31
2023-03-29T09:12:08.831Z,98737.47
2023-03-29T09:14:48.911Z,98750.41
2023-03-29T09:17:36.949Z,98756.44
2023-03-29T09:20:22.868Z,98745.28
2023-03-29T09:23:25.567Z,98753.94
2023-03-29T09:26:24.673Z,98743.72
2023-03-29T09:29:26.223Z,98767.00
2023-03-29T09:31:53.531Z,98762.78
2023-03-29T09:34:23.651Z,98752.53
2023-03-29T09:37:04.489Z,98768.06
2023-03-29T09:39:31.701Z,98762.13
2023-03-29T09:42:11.998Z,98767.28
2023-03-29T09:44:44.298Z,98769.03
2023-03-29T09:47:19.365Z,98774.19
2023-03-29T09:49:49.301Z,98757.00
2023-03-29T09:52:21.021Z,98772.47
2023-03-29T09:55:03.704Z,98765.63
2023-03-29T09:58:07.636Z,98764.78
2023-03-29T10:00:39.853Z,98764.75
2023-03-29T10:03:09.291Z,98778.50
2023-03-29T10:05:48.811Z,98769.06
2023-03-29T10:08:22.860Z,98763.91
2023-03-29T10:10:51.014Z,98780.25
2023-03-29T10:13:27.104Z,98775.94
2023-03-29T10:16:18.785Z,98777.66
2023-03-29T10:18:47.216Z,98778.50
2023-03-29T10:21:18.903Z,98779.34
2023-03-29T10:23:46.128Z,98778.50
2023-03-29T10:26:32.627Z,98765.63
2023-03-29T10:29:01.673Z,98776.78
2023-03-29T10:31:29.826Z,98781.06
2023-03-29T10:33:57.513Z,98777.63
2023-03-29T10:36:26.289Z,98784.47
2023-03-29T10:38:53.744Z,98796.50
2023-03-29T10:41:21.868Z,98793.03
2023-03-29T10:43:51.103Z,98786.16
2023-03-29T10:46:21.412Z,98787.00
2023-03-29T10:48:55.578Z,98782.72
2023-03-29T10:51:22.569Z,98789.56
2023-03-29T10:53:49.375Z,98799.84
2023-03-29T10:56:28.827Z,98786.13
2023-03-29T10:59:23.116Z,98790.41
2023-03-29T11:02:08.741Z,98772.41
2023-03-29T11:05:01.080Z,98784.38
2023-03-29T11:07:28.066Z,98778.38
2023-03-29T11:10:28.918Z,98776.66
2023-03-29T11:13:14.084Z,98798.94
2023-03-29T11:16:05.895Z,98781.78
2023-03-29T11:18:52.099Z,98781.78
2023-03-29T11:21:46.738Z,98782.63
2023-03-29T11:24:51.508Z,98776.66
2023-03-29T11:27:24.333Z,98796.34
2023-03-29T11:30:00.440Z,98781.75
2023-03-29T11:32:33.426Z,98788.63
2023-03-29T11:35:34.768Z,98788.63
2023-03-29T11:38:17.391Z,98791.19
2023-03-29T11:41:13.835Z,98786.06
2023-03-29T11:43:54.235Z,98796.31
2023-03-29T11:46:39.639Z,98789.47
2023-03-29T11:49:15.540Z,98793.72
2023-03-29T11:51:49.076Z,98802.28
2023-03-29T11:54:30.589Z,98794.59
2023-03-29T11:57:05.923Z,98786.00
2023-03-29T11:59:38.068Z,98797.13
2023-03-29T12:02:08.280Z,98804.00
2023-03-29T12:04:41.960Z,98801.44
2023-03-29T12:07:15.213Z,98800.59
2023-03-29T12:09:53.913Z,98812.56
2023-03-29T12:12:27.239Z,98819.44
2023-03-29T12:15:20.255Z,98815.13
2023-03-29T12:17:51.875Z,98813.41
2023-03-29T12:20:31.521Z,98813.44
2023-03-29T12:23:00.871Z,98805.72
2023-03-29T12:25:31.526Z,98814.28
2023-03-29T12:28:23.478Z,98806.56
2023-03-29T12:31:11.958Z,98811.72
2023-03-29T12:34:00.435Z,98798.88
2023-03-29T12:37:10.244Z,98810.84
2023-03-29T12:40:20.501Z,98805.69
2023-03-29T12:43:39.794Z,98808.25
2023-03-29T12:46:27.875Z,98806.53
2023-03-29T12:48:57.309Z,98809.09
2023-03-29T12:51:32.399Z,98811.69
2023-03-29T12:54:17.162Z,98814.25
2023-03-29T12:56:53.424Z,98809.09
2023-03-29T12:59:46.224Z,98808.25
2023-03-29T13:02:14.046Z,98821.91
2023-03-29T13:04:44.054Z,98821.06
2023-03-29T13:07:26.503Z,98811.63
2023-03-29T13:09:54.192Z,98815.91
2023-03-29T13:12:44.708Z,98818.50
2023-03-29T13:15:14.774Z,98819.34
2023-03-29T13:18:12.821Z,98827.91
2023-03-29T13:20:47.877Z,98830.47
2023-03-29T13:23:50.133Z,98827.91
2023-03-29T13:26:46.605Z,98845.88
2023-03-29T13:29:19.907Z,98830.47
2023-03-29T13:32:03.884Z,98829.63
2023-03-29T13:35:10.533Z,98840.75
2023-03-29T13:37:49.028Z,98835.59
2023-03-29T13:40:41.926Z,98837.31
2023-03-29T13:43:11.786Z,98839.03
2023-03-29T13:45:38.997Z,98845.03
2023-03-29T13:48:20.187Z,98843.31
2023-03-29T13:50:55.742Z,98854.44
2023-03-29T13:53:29.429Z,98850.16
2023-03-29T13:55:56.622Z,98839.88
2023-03-29T13:58:38.200Z,98848.47
2023-03-29T14:01:11.096Z,98857.88
2023-03-29T14:03:44.790Z,98856.19
2023-03-29T14:06:14.621Z,98863.00
2023-03-29T14:08:42.138Z,98857.88
2023-03-29T14:11:23.187Z,98854.44
2023-03-29T14:13:57.687Z,98846.75
2023-03-29T14:16:32.123Z,98844.19
2023-03-29T14:18:59.942Z,98847.59
2023-03-29T14:21:26.955Z,98855.31
2023-03-29T14:24:01.615Z,98857.88
2023-03-29T14:26:33.232Z,98851.88
2023-03-29T14:29:01.431Z,98857.00
2023-03-29T14:31:33.513Z,98866.47
2023-03-29T14:34:01.427Z,98861.31
2023-03-29T14:36:29.070Z,98864.75
2023-03-29T14:38:59.486Z,98863.91
2023-03-29T14:41:33.966Z,98866.47
2023-03-29T14:44:01.230Z,98867.34
2023-03-29T14:46:28.268Z,98869.91
2023-03-29T14:48:55.893Z,98872.47
2023-03-29T14:51:27.143Z,98871.63
2023-03-29T14:53:54.244Z,98880.19
2023-03-29T14:56:25.407Z,98875.03
2023-03-29T14:58:56.683Z,98883.63
2023-03-29T15:01:24.916Z,98889.63
2023-03-29T15:04:04.344Z,98875.03
2023-03-29T15:06:31.704Z,98894.72
2023-03-29T15:09:06.031Z,98891.31
2023-03-29T15:11:35.416Z,98883.59
2023-03-29T15:14:08.657Z,98887.88
2023-03-29T15:16:43.341Z,98886.16
2023-03-29T15:19:17.355Z,98887.84
2023-03-29T15:21:44.372Z,98888.72
2023-03-29T15:24:22.236Z,98887.88
2023-03-29T15:27:16.501Z,98894.75
2023-03-29T15:29:43.762Z,98900.72
2023-03-29T15:32:19.125Z,98904.16
2023-03-29T15:34:46.137Z,98898.16
2023-03-29T15:37:13.090Z,98900.72
2023-03-29T15:39:41.883Z,98893.88
2023-03-29T15:42:08.801Z,98902.41
2023-03-29T15:44:36.436Z,98899.84
2023-03-29T15:47:03.511Z,98890.44
2023-03-29T15:49:30.746Z,98893.84
2023-03-29T15:51:57.589Z,98893.84
2023-03-29T15:54:24.957Z,98911.84
2023-03-29T15:56:56.772Z,98910.13
2023-03-29T15:59:23.837Z,98912.69
2023-03-29T16:01:50.886Z,98920.41
2023-03-29T16:04:19.104Z,98921.28
2023-03-29T16:06:48.800Z,98928.09
2023-03-29T16:09:16.462Z,98929.81
2023-03-29T16:11:43.810Z,98935.78
2023-03-29T16:14:21.177Z,98937.50
2023-03-29T16:16:48.122Z,98929.78
2023-03-29T16:19:15.544Z,98940.91
2023-03-29T16:21:43.377Z,98934.91
2023-03-29T16:24:14.967Z,98936.63
2023-03-29T16:26:42.130Z,98939.19
2023-03-29T16:29:09.476Z,98948.59
2023-03-29T16:31:36.647Z,98946.03
2023-03-29T16:34:04.363Z,98951.16
2023-03-29T16:36:32.969Z,98950.28
2023-03-29T16:39:00.128Z,98963.13
2023-03-29T16:41:27.190Z,98954.56
2023-03-29T16:43:54.097Z,98959.69
2023-03-29T16:46:21.245Z,98950.25
2023-03-29T16:48:48.976Z,98953.69
2023-03-29T16:51:15.993Z,98959.66
2023-03-29T16:53:43.132Z,98957.97
2023-03-29T16:56:10.989Z,98960.50
2023-03-29T16:58:41.443Z,98954.53
2023-03-29T17:01:13.394Z,98956.25
2023-03-29T17:03:40.571Z,98967.34
2023-03-29T17:06:08.314Z,98967.38
2023-03-29T17:08:35.397Z,98968.22
2023-03-29T17:11:03.172Z,98975.94
2023-03-29T17:13:30.103Z,98975.94
2023-03-29T17:15:57.474Z,98979.38
2023-03-29T17:18:25.242Z,98974.22
2023-03-29T17:20:56.054Z,98973.38
2023-03-29T17:23:23.294Z,98983.66
2023-03-29T17:25:50.666Z,98987.06
2023-03-29T17:28:17.580Z,98986.19
2023-03-29T17:30:46.347Z,98983.63
2023-03-29T17:33:14.039Z,98995.63
2023-03-29T17:35:44.453Z,98985.31
2023-03-29T17:38:11.962Z,98989.59
2023-03-29T17:40:39.326Z,98985.28
2023-03-29T17:43:06.384Z,98984.41
2023-03-29T17:45:35.382Z,98987.00
2023-03-29T17:48:04.741Z,98987.03
2023-03-29T17:50:33.086Z,98986.16
2023-03-29T17:53:00.015Z,98987.88
2023-03-29T17:55:27.479Z,98987.84
2023-03-29T17:57:54.502Z,98990.44
2023-03-29T18:00:21.675Z,98986.16
2023-03-29T18:02:48.737Z,98987.88
2023-03-29T18:05:15.892Z,98994.69
2023-03-29T18:07:42.759Z,98998.97
2023-03-29T18:10:10.212Z,98995.53
2023-03-29T18:12:37.192Z,99000.69
2023-03-29T18:15:04.386Z,98994.66
2023-03-29T18:17:32.928Z,99001.53
2023-03-29T18:19:59.786Z,98999.84
2023-03-29T18:22:26.743Z,99001.56
2023-03-29T18:24:54.990Z,99005.84
2023-03-29T18:27:21.975Z,99011.84
2023-03-29T18:29:49.004Z,99005.84
2023-03-29T18:32:16.296Z,99008.41
2023-03-29T18:34:43.303Z,99013.56
2023-03-29T18:37:14.635Z,99011.00
2023-03-29T18:39:41.860Z,99004.09
2023-03-29T18:42:11.996Z,99005.81
2023-03-29T18:44:40.569Z,99010.06
2023-03-29T18:47:07.781Z,99004.94
2023-03-29T18:49:34.742Z,99009.22
2023-03-29T18:52:02.162Z,99009.13
2023-03-29T18:54:29.155Z,99008.25
2023-03-29T18:56:58.696Z,99011.69
2023-03-29T18:59:26.388Z,99008.22
2023-03-29T19:01:53.373Z,99014.22
2023-03-29T19:04:20.380Z,99015.94
2023-03-29T19:06:47.644Z,99017.66
2023-03-29T19:09:14.461Z,99014.22
2023-03-29T19:11:41.558Z,99009.91
2023-03-29T19:14:09.410Z,99015.91
2023-03-29T19:16:36.508Z,99016.78
2023-03-29T19:19:05.776Z,99014.19
2023-03-29T19:21:33.299Z,99015.91
2023-03-29T19:24:01.018Z,99012.50
2023-03-29T19:26:33.296Z,99013.34
2023-03-29T19:29:01.099Z,99011.63
2023-03-29T19:31:27.996Z,99012.47
2023-03-29T19:33:55.161Z,99016.72
2023-03-29T19:36:22.296Z,99013.28
2023-03-29T19:38:49.301Z,99020.94
2023-03-29T19:41:16.456Z,99011.50
2023-03-29T19:43:43.586Z,99018.38
2023-03-29T19:46:11.784Z,99023.50
2023-03-29T19:48:39.003Z,99016.63
2023-03-29T19:51:05.942Z,99011.44
2023-03-29T19:53:32.937Z,99013.16
2023-03-29T19:56:00.103Z,99009.72
2023-03-29T19:58:27.130Z,99010.56
2023-03-29T20:00:58.155Z,99006.31
2023-03-29T20:03:28.302Z,99008.88
2023-03-29T20:05:56.559Z,99018.25
2023-03-29T20:08:24.828Z,99011.44
2023-03-29T20:10:58.914Z,99013.13
2023-03-29T20:13:37.545Z,99014.81
2023-03-29T20:16:10.512Z,99021.72
2023-03-29T20:18:40.358Z,99022.56
2023-03-29T20:21:07.901Z,99027.69
2023-03-29T20:23:35.252Z,99026.81
2023-03-29T20:26:02.190Z,99025.13
2023-03-29T20:28:29.372Z,99025.13
2023-03-29T20:30:56.194Z,99033.66
2023-03-29T20:33:23.199Z,99028.53
2023-03-29T20:35:50.154Z,99020.00
2023-03-29T20:38:17.178Z,99017.38
2023-03-29T20:40:45.014Z,99018.25
2023-03-29T20:43:13.609Z,99011.41
2023-03-29T20:45:52.198Z,99025.09
2023-03-29T20:48:23.308Z,99019.94
2023-03-29T20:50:50.565Z,99025.97
2023-03-29T20:53:18.470Z,99019.09
2023-03-29T20:55:45.873Z,99029.38
2023-03-29T20:58:12.738Z,99030.22
2023-03-29T21:00:40.437Z,99035.34
2023-03-29T21:03:08.795Z,99027.66
2023-03-29T21:05:36.045Z,99026.81
2023-03-29T21:08:04.467Z,99029.38
2023-03-29T21:10:31.575Z,99023.41
2023-03-29T21:13:00.516Z,99025.97
2023-03-29T21:15:28.740Z,99019.94
2023-03-29T21:17:55.969Z,99013.13
2023-03-29T21:20:24.207Z,99024.28
2023-03-29T21:22:51.218Z,99021.72
2023-03-29T21:25:18.572Z,99014.84
2023-03-29T21:27:45.476Z,99022.56
2023-03-29T21:30:12.650Z,99025.13
2023-03-29T21:32:39.784Z,99033.72
2023-03-29T21:35:07.349Z,99035.41
2023-03-29T21:37:34.292Z,99026.84
2023-03-29T21:40:05.378Z,99030.28
2023-03-29T21:42:33.219Z,99032.03
2023-03-29T21:45:00.121Z,99031.13
2023-03-29T21:47:27.161Z,99020.88
2023-03-29T21:49:54.061Z,99026.84
2023-03-29T21:52:21.630Z,99025.16
2023-03-29T21:54:48.526Z,99030.28
2023-03-29T21:57:15.710Z,99030.28
2023-03-29T21:59:42.690Z,99026.03
2023-03-29T22:02:09.719Z,99032.06
2023-03-29T22:04:37.672Z,99032.09
2023-03-29T22:07:05.382Z,99021.81
2023-03-29T22:09:33.293Z,99026.06
2023-03-29T22:12:01.624Z,99026.06
2023-03-29T22:14:30.339Z,99027.75
2023-03-29T22:16:57.505Z,99025.19
2023-03-29T22:19:24.534Z,99022.59
2023-03-29T22:21:51.587Z,99016.63
2023-03-29T22:24:18.666Z,99018.31
2023-03-29T22:26:45.980Z,99021.72
2023-03-29T22:29:12.873Z,99020.00
2023-03-29T22:31:39.817Z,99018.28
2023-03-29T22:34:06.921Z,99015.69
2023-03-29T22:36:33.938Z,99009.72
2023-03-29T22:39:01.010Z,99009.72
2023-03-29T22:41:28.373Z,99019.16
2023-03-29T22:43:56.628Z,99012.31
2023-03-29T22:46:23.566Z,99020.88
2023-03-29T22:48:51.116Z,99026.84
2023-03-29T22:51:18.095Z,99026.03
2023-03-29T22:53:47.161Z,99022.63
2023-03-29T22:56:15.589Z,99024.28
2023-03-29T22:58:42.745Z,99020.03
2023-03-29T23:01:09.802Z,99022.56
2023-03-29T23:03:37.030Z,99025.97
2023-03-29T23:06:04.149Z,99014.84
2023-03-29T23:08:32.136Z,99021.69
2023-03-29T23:10:59.202Z,99019.94
2023-03-29T23:13:26.435Z,99014.81
2023-03-29T23:15:54.640Z,99012.22
2023-03-29T23:18:23.570Z,99013.09
2023-03-29T23:20:51.984Z,99013.94
2023-03-29T23:23:19.704Z,99007.97
2023-03-29T23:25:47.572Z,99001.06
2023-03-29T23:28:15.152Z,99006.25
2023-03-29T23:30:41.983Z,99005.41
2023-03-29T23:33:10.862Z,99005.41
2023-03-29T23:35:37.910Z,99008.81
2023-03-29T23:38:05.846Z,99004.50
2023-03-29T23:40:33.355Z,99013.94
2023-03-29T23:43:01.532Z,99000.22
2023-03-29T23:45:28.390Z,99012.19
2023-03-29T23:47:55.353Z,98999.34
2023-03-29T23:50:22.692Z,99000.22
2023-03-29T23:52:51.600Z,99001.06
2023-03-29T23:55:19.521Z,98997.69
2023-03-29T23:57:46.473Z,98993.44
